Aérodrome :
LOGIN :

S'inscrire | Disclaimer

   EN    FR    IT 

 










Légende :    VFR   VFR Marginal   IFR   IFR Intensif   IFR Très Intensif
Visi : 
Plafond : 
>= 8 km
>= 3000ft
5 à 8 km
1000 à 3000 ft
1500m à 5 km
500 à 1000 ft
800 à 1500m
200 à 500 ft
< 800m
< 200 ft
Symboles :   Orages  Brouillard  Fortes neiges  Fortes précipitations  Vent > 20 kt
SIGMETs :   Divers  Orages  Givrage  Turbulence  Onde Orograph.  Cendres Volcan.







- Altitude de l'aérodrome : 194 ft
- Code IATA : LME
- Voir les cartes d'approche


LFRM - Le Mans

DERNIER METAR :
  • 250430Z AUTO 24006KT 190V270 9999 OVC023 12/10 Q1016

METARs EXPIRÉS :
  • 250400Z AUTO 24006KT 200V280 9999 OVC024 12/10 Q1016
  • 250330Z AUTO 24006KT 200V270 9999 FEW010 SCT019 OVC026 11/09 Q1016
  • 250300Z AUTO 24006KT 190V280 9999 FEW011 OVC023 11/09 Q1016
  • 250230Z AUTO 25007KT 210V290 9999 OVC010 11/09 Q1016
  • 250200Z AUTO 25009KT 210V290 9999 OVC011 11/09 Q1016

TAF TAF LFRM
Valide du 24 à 18h jusqu'au 25 à 18h UTC


241700Z 2418/2518 25008KT 9999 SCT030 SCT040
BECMG 2500/2503 BKN010
TEMPO 2505/2511 3000 -RADZ BKN004
BECMG 2511/2513 BKN026
BECMG 2515/2518 31010KT
Pas de NOTAMs connus pour ce terrain.



MET'MAP, la Météo Aéronautique d'un coup d'oeil ! - Copyright ORBIFLY Décembre 2007 - Disclaimer

ORBIFLY MET'MAP TEAM :

Programmation & Développement : Alexandra Zaïnal
Conception & Développement : Baudouin d'Aumeries
Co-Programmation & Développement : Marc-Olivier Méhu
Soutien technique & logistique : Manuel Goepfert

Contact : metmap@orbifly.com




SOURCES & CREDITS :

   NOAA